Aérodrome :
LOGIN :

S'inscrire | Disclaimer

   EN    FR    IT 

 










Légende :    VFR   VFR Marginal   IFR   IFR Intensif   IFR Très Intensif
Visi : 
Plafond : 
>= 8 km
>= 3000ft
5 à 8 km
1000 à 3000 ft
1500m à 5 km
500 à 1000 ft
800 à 1500m
200 à 500 ft
< 800m
< 200 ft
Symboles :   Orages  Brouillard  Fortes neiges  Fortes précipitations  Vent > 20 kt
SIGMETs :   Divers  Orages  Givrage  Turbulence  Onde Orograph.  Cendres Volcan.






- Altitude de l'aérodrome : 3 ft
- Code IATA : LWR


EHLW - Leuuwarden Air Base

DERNIER METAR :
  • 270558Z AUTO 36011KT 340V040 9999 FEW007 13/11 Q1034 BLU 01011KT 9999 SCT008

METARs EXPIRÉS :
  • 270555Z AUTO 01011KT 9999 FEW008 13/11 Q1034 BLU 01011KT 9999 SCT008
  • 270542Z AUTO 36010KT 9999 NCD 13/11 Q1034 BLU
  • 270526Z AUTO 36009KT 330V030 9000 BR FEW054 12/12 Q1034 BLU
  • 270459Z AUTO 36009KT 2600 BR FEW001 BKN002 OVC003 11/11 Q1034 AMB
  • 270455Z AUTO 36009KT 2700 BR SCT001 OVC002 11/11 Q1034 RED
  • 270438Z AUTO 36008KT 2000 BR SCT001 OVC002 11/11 Q1034 RED
  • 270425Z AUTO 35008KT 310V010 1000 BR SCT000 OVC002 11/11 Q1034 RED
  • 270409Z AUTO 35008KT 0800 FG BKN003 OVC004 12/11 Q1034 AMB
  • 270356Z AUTO 36006KT 320V020 2900 BR FEW002 BKN004 BKN048 12/11 Q1034 YLO
  • 270325Z AUTO 36006KT 330V030 3200 BR SCT003 BKN004 OVC006 12/12 Q1034 YLO

TAF TAF EHLW
Valide du 27 à 05h jusqu'au 27 à 17h UTC


270454Z 2705/2717 35005KT 2500 BR SCT003 BKN005
PROB40
TEMPO 2705/2707 0600 FG BKN001
BECMG 2707/2710 FEW005 BKN040
TEMPO 2711/2713 03010G22KT



MET'MAP, la Météo Aéronautique d'un coup d'oeil ! - Copyright ORBIFLY Décembre 2007 - Disclaimer

ORBIFLY MET'MAP TEAM :

Programmation & Développement : Alexandra Zaïnal
Sur une idée originale de : Baudouin d'Aumeries
Assistance à la programmation : Marc-Olivier Méhu
Soutien technique & logistique : Manuel Goepfert

Contact : metmap@orbifly.com




SOURCES & CREDITS :

   NOAA